Главная страница
METAR-TAF:

METAR-TAF

Аэропорты :

Caldwell, Нью-Джерси, США

широта: 40-52-35N, долгота: 074-16-59W, высота над уровнем моря: 52 м

Текущие метеонаблюдения

Эта сводка был подготовлена 57 минут назад, в 11:53 UTC
Штиль
Температура 15°C
Влажность 59%
Давление 1025 hPa
Видимость: 16.1 км
ясное небо

METAR: KCDW 161153Z 00000KT 10SM CLR 15/07 A3027 RMK AO2 SLP255 T01500072 10167 20117 51014

Время: 08:50 (12:50 UTC)


TAF: отсутствует

Метеонаблюдения и прогнозы для более 4000 аэропортов (сводки METAR и TAF).

Имеющиеся станции представлены на карте желтыми и красными точками.

Чтобы увидеть название станции, наведите на нее мышь.

Затем щелкните, чтобы увидеть метеонаблюдения и метеопрогнозы.

Управление картой: чтобы увеличить масштаб, щелкните зеленые кнопки с черным крестиком; чтобы уменьшить масштаб, щелкните зеленую кнопку с тире; для просмотра соседних карт щелкайте зеленые стрелки.


METAR-TAF: